Terminal Aerodrome Forecast
Issued by NWS Cleveland, OH

Home | Current Version | Previous Version | Graphics & Text | Print | Product List | Glossary On
Versions: 1 2 3 4 5 6 7 8 9 10 11 12 13 14 15 16
000
FTUS41 KCLE 260522
TAFMFD
TAF
KMFD 260522Z 2606/2706 27014KT P6SM SCT025 OVC035
      TEMPO 2609/2612 BKN025 OVC035
     FM261600 23008KT P6SM BKN035
     FM261900 22010G20KT P6SM SCT070
     FM270000 22010KT P6SM SCT070=

USA.gov is the U.S. government's official web portal to all federal, state and local government web resources and services.